sensor_id;sensor_type;location;lat;lon;timestamp;P1;durP1;ratioP1;P2;durP2;ratioP2
66384;SDS011;53426;55.872;37.462;2023-06-24T00:01:02;9.63;;;8.63;;
66384;SDS011;53426;55.872;37.462;2023-06-24T00:03:28;9.55;;;8.65;;
66384;SDS011;53426;55.872;37.462;2023-06-24T00:05:54;11.15;;;9.10;;
66384;SDS011;53426;55.872;37.462;2023-06-24T00:08:22;9.50;;;8.50;;
66384;SDS011;53426;55.872;37.462;2023-06-24T00:10:48;9.68;;;8.60;;
66384;SDS011;53426;55.872;37.462;2023-06-24T00:13:15;9.80;;;8.90;;
66384;SDS011;53426;55.872;37.462;2023-06-24T00:15:41;8.90;;;8.10;;
66384;SDS011;53426;55.872;37.462;2023-06-24T00:18:10;9.73;;;8.82;;
66384;SDS011;53426;55.872;37.462;2023-06-24T00:20:36;11.38;;;7.90;;
66384;SDS011;53426;55.872;37.462;2023-06-24T00:23:03;11.18;;;8.23;;
66384;SDS011;53426;55.872;37.462;2023-06-24T00:25:30;9.43;;;8.27;;
66384;SDS011;53426;55.872;37.462;2023-06-24T00:27:55;9.43;;;7.55;;
66384;SDS011;53426;55.872;37.462;2023-06-24T00:30:22;8.05;;;7.35;;
66384;SDS011;53426;55.872;37.462;2023-06-24T00:32:48;8.68;;;7.78;;
66384;SDS011;53426;55.872;37.462;2023-06-24T00:35:14;7.20;;;6.57;;
66384;SDS011;53426;55.872;37.462;2023-06-24T00:37:41;9.00;;;7.32;;
66384;SDS011;53426;55.872;37.462;2023-06-24T00:40:08;7.65;;;6.50;;
66384;SDS011;53426;55.872;37.462;2023-06-24T00:42:37;10.35;;;6.55;;
66384;SDS011;53426;55.872;37.462;2023-06-24T00:45:03;8.93;;;6.57;;
66384;SDS011;53426;55.872;37.462;2023-06-24T00:47:31;6.82;;;5.65;;
66384;SDS011;53426;55.872;37.462;2023-06-24T00:49:59;5.95;;;5.45;;
66384;SDS011;53426;55.872;37.462;2023-06-24T00:52:25;6.47;;;5.85;;
66384;SDS011;53426;55.872;37.462;2023-06-24T00:54:52;5.75;;;5.30;;
66384;SDS011;53426;55.872;37.462;2023-06-24T00:57:21;7.18;;;4.63;;
66384;SDS011;53426;55.872;37.462;2023-06-24T00:59:51;4.65;;;4.35;;
66384;SDS011;53426;55.872;37.462;2023-06-24T01:02:20;4.80;;;4.40;;
66384;SDS011;53426;55.872;37.462;2023-06-24T01:04:54;5.70;;;4.47;;
66384;SDS011;53426;55.872;37.462;2023-06-24T01:07:26;4.20;;;3.90;;
66384;SDS011;53426;55.872;37.462;2023-06-24T01:09:54;3.90;;;3.60;;
66384;SDS011;53426;55.872;37.462;2023-06-24T01:33:28;2.67;;;2.47;;
66384;SDS011;53426;55.872;37.462;2023-06-24T01:36:03;3.00;;;2.33;;
66384;SDS011;53426;55.872;37.462;2023-06-24T01:38:36;2.35;;;2.25;;
66384;SDS011;53426;55.872;37.462;2023-06-24T01:43:38;2.50;;;2.40;;
66384;SDS011;53426;55.872;37.462;2023-06-24T01:46:09;2.67;;;2.47;;
66384;SDS011;53426;55.872;37.462;2023-06-24T01:52:23;2.05;;;1.95;;
66384;SDS011;53426;55.872;37.462;2023-06-24T01:54:53;1.85;;;1.75;;
66384;SDS011;53426;55.872;37.462;2023-06-24T01:57:20;2.15;;;2.05;;
66384;SDS011;53426;55.872;37.462;2023-06-24T01:59:48;7.32;;;2.03;;
66384;SDS011;53426;55.872;37.462;2023-06-24T02:02:15;1.88;;;1.77;;
66384;SDS011;53426;55.872;37.462;2023-06-24T02:04:48;1.90;;;1.80;;
66384;SDS011;53426;55.872;37.462;2023-06-24T02:07:17;1.92;;;1.83;;
66384;SDS011;53426;55.872;37.462;2023-06-24T02:09:48;3.10;;;1.80;;
66384;SDS011;53426;55.872;37.462;2023-06-24T02:12:16;1.90;;;1.80;;
66384;SDS011;53426;55.872;37.462;2023-06-24T02:14:44;2.35;;;1.90;;
66384;SDS011;53426;55.872;37.462;2023-06-24T02:17:10;1.45;;;1.45;;
66384;SDS011;53426;55.872;37.462;2023-06-24T02:19:41;1.83;;;1.73;;
66384;SDS011;53426;55.872;37.462;2023-06-24T02:22:09;1.70;;;1.60;;
66384;SDS011;53426;55.872;37.462;2023-06-24T02:28:20;1.70;;;1.60;;
66384;SDS011;53426;55.872;37.462;2023-06-24T02:30:48;3.05;;;1.80;;
66384;SDS011;53426;55.872;37.462;2023-06-24T02:33:16;1.50;;;1.40;;
66384;SDS011;53426;55.872;37.462;2023-06-24T02:35:44;3.70;;;1.70;;
66384;SDS011;53426;55.872;37.462;2023-06-24T02:38:12;1.98;;;1.58;;
66384;SDS011;53426;55.872;37.462;2023-06-24T02:40:38;3.55;;;1.45;;
66384;SDS011;53426;55.872;37.462;2023-06-24T02:43:04;1.95;;;1.42;;
66384;SDS011;53426;55.872;37.462;2023-06-24T02:45:30;1.60;;;1.50;;
66384;SDS011;53426;55.872;37.462;2023-06-24T02:47:57;1.20;;;1.20;;
66384;SDS011;53426;55.872;37.462;2023-06-24T02:51:45;2.13;;;1.02;;
66384;SDS011;53426;55.872;37.462;2023-06-24T02:54:15;1.30;;;1.20;;
66384;SDS011;53426;55.872;37.462;2023-06-24T02:57:08;1.02;;;1.00;;
66384;SDS011;53426;55.872;37.462;2023-06-24T02:59:54;1.00;;;1.00;;
66384;SDS011;53426;55.872;37.462;2023-06-24T03:02:25;1.75;;;1.10;;
66384;SDS011;53426;55.872;37.462;2023-06-24T03:04:53;6.55;;;1.17;;
66384;SDS011;53426;55.872;37.462;2023-06-24T03:07:22;1.10;;;1.05;;
66384;SDS011;53426;55.872;37.462;2023-06-24T03:09:51;1.75;;;1.40;;
66384;SDS011;53426;55.872;37.462;2023-06-24T03:12:17;1.05;;;1.00;;
66384;SDS011;53426;55.872;37.462;2023-06-24T03:14:43;1.80;;;1.10;;
66384;SDS011;53426;55.872;37.462;2023-06-24T03:17:09;3.53;;;1.00;;
66384;SDS011;53426;55.872;37.462;2023-06-24T03:19:36;0.95;;;0.95;;
66384;SDS011;53426;55.872;37.462;2023-06-24T03:22:03;0.93;;;0.90;;
66384;SDS011;53426;55.872;37.462;2023-06-24T03:24:32;1.95;;;0.93;;
66384;SDS011;53426;55.872;37.462;2023-06-24T03:26:58;2.38;;;1.45;;
66384;SDS011;53426;55.872;37.462;2023-06-24T03:29:31;1.00;;;0.90;;
66384;SDS011;53426;55.872;37.462;2023-06-24T03:32:09;1.23;;;1.00;;
66384;SDS011;53426;55.872;37.462;2023-06-24T03:34:35;1.20;;;1.20;;
66384;SDS011;53426;55.872;37.462;2023-06-24T03:37:04;1.33;;;0.77;;
66384;SDS011;53426;55.872;37.462;2023-06-24T03:39:32;0.90;;;0.90;;
66384;SDS011;53426;55.872;37.462;2023-06-24T03:41:58;1.08;;;1.00;;
66384;SDS011;53426;55.872;37.462;2023-06-24T03:44:24;1.17;;;1.10;;
66384;SDS011;53426;55.872;37.462;2023-06-24T03:46:51;4.32;;;1.10;;
66384;SDS011;53426;55.872;37.462;2023-06-24T03:49:18;1.00;;;0.90;;
66384;SDS011;53426;55.872;37.462;2023-06-24T03:51:45;1.73;;;1.30;;
66384;SDS011;53426;55.872;37.462;2023-06-24T03:54:11;1.00;;;1.00;;
66384;SDS011;53426;55.872;37.462;2023-06-24T03:56:37;1.00;;;1.00;;
66384;SDS011;53426;55.872;37.462;2023-06-24T03:59:04;1.20;;;1.20;;
66384;SDS011;53426;55.872;37.462;2023-06-24T04:01:31;1.20;;;1.10;;
66384;SDS011;53426;55.872;37.462;2023-06-24T04:03:57;2.40;;;1.23;;
66384;SDS011;53426;55.872;37.462;2023-06-24T04:06:28;1.13;;;1.13;;
66384;SDS011;53426;55.872;37.462;2023-06-24T04:08:54;1.20;;;1.10;;
66384;SDS011;53426;55.872;37.462;2023-06-24T04:11:22;6.47;;;1.13;;
66384;SDS011;53426;55.872;37.462;2023-06-24T04:14:34;1.25;;;1.20;;
66384;SDS011;53426;55.872;37.462;2023-06-24T04:17:00;1.02;;;1.02;;
66384;SDS011;53426;55.872;37.462;2023-06-24T04:22:21;1.30;;;1.20;;
66384;SDS011;53426;55.872;37.462;2023-06-24T04:24:56;1.20;;;1.20;;
66384;SDS011;53426;55.872;37.462;2023-06-24T04:27:23;4.53;;;1.25;;
66384;SDS011;53426;55.872;37.462;2023-06-24T04:32:40;2.67;;;1.45;;
66384;SDS011;53426;55.872;37.462;2023-06-24T04:35:07;1.10;;;1.10;;
66384;SDS011;53426;55.872;37.462;2023-06-24T04:37:38;1.10;;;1.10;;
66384;SDS011;53426;55.872;37.462;2023-06-24T04:40:10;4.47;;;1.30;;
66384;SDS011;53426;55.872;37.462;2023-06-24T04:42:39;2.70;;;1.20;;
66384;SDS011;53426;55.872;37.462;2023-06-24T04:45:14;1.77;;;1.20;;
66384;SDS011;53426;55.872;37.462;2023-06-24T04:47:47;1.20;;;1.20;;
66384;SDS011;53426;55.872;37.462;2023-06-24T04:50:33;1.83;;;1.30;;
66384;SDS011;53426;55.872;37.462;2023-06-24T04:52:59;1.40;;;1.30;;
66384;SDS011;53426;55.872;37.462;2023-06-24T04:55:27;1.23;;;1.23;;
66384;SDS011;53426;55.872;37.462;2023-06-24T04:57:55;1.20;;;1.17;;
66384;SDS011;53426;55.872;37.462;2023-06-24T05:00:22;7.53;;;1.40;;
66384;SDS011;53426;55.872;37.462;2023-06-24T05:02:50;10.10;;;1.40;;
66384;SDS011;53426;55.872;37.462;2023-06-24T05:05:16;4.50;;;1.48;;
66384;SDS011;53426;55.872;37.462;2023-06-24T05:07:50;3.17;;;1.65;;
66384;SDS011;53426;55.872;37.462;2023-06-24T05:10:17;1.70;;;1.60;;
66384;SDS011;53426;55.872;37.462;2023-06-24T05:12:46;5.30;;;1.38;;
66384;SDS011;53426;55.872;37.462;2023-06-24T05:15:12;2.55;;;1.80;;
66384;SDS011;53426;55.872;37.462;2023-06-24T05:17:39;2.10;;;1.70;;
66384;SDS011;53426;55.872;37.462;2023-06-24T05:20:05;7.95;;;1.75;;
66384;SDS011;53426;55.872;37.462;2023-06-24T05:22:32;2.20;;;1.60;;
66384;SDS011;53426;55.872;37.462;2023-06-24T05:24:57;3.13;;;1.50;;
66384;SDS011;53426;55.872;37.462;2023-06-24T05:27:23;1.60;;;1.50;;
66384;SDS011;53426;55.872;37.462;2023-06-24T05:29:49;2.00;;;1.60;;
66384;SDS011;53426;55.872;37.462;2023-06-24T05:32:15;4.03;;;1.70;;
66384;SDS011;53426;55.872;37.462;2023-06-24T05:34:43;5.07;;;3.67;;
66384;SDS011;53426;55.872;37.462;2023-06-24T05:37:09;1.50;;;1.40;;
66384;SDS011;53426;55.872;37.462;2023-06-24T05:39:41;6.53;;;1.50;;
66384;SDS011;53426;55.872;37.462;2023-06-24T05:45:03;1.60;;;1.50;;
66384;SDS011;53426;55.872;37.462;2023-06-24T05:47:32;1.85;;;1.75;;
66384;SDS011;53426;55.872;37.462;2023-06-24T05:49:58;5.40;;;3.00;;
66384;SDS011;53426;55.872;37.462;2023-06-24T05:52:24;1.73;;;1.40;;
66384;SDS011;53426;55.872;37.462;2023-06-24T05:54:50;1.60;;;1.40;;
66384;SDS011;53426;55.872;37.462;2023-06-24T05:57:17;2.40;;;2.17;;
66384;SDS011;53426;55.872;37.462;2023-06-24T05:59:43;2.30;;;2.10;;
66384;SDS011;53426;55.872;37.462;2023-06-24T06:02:09;1.70;;;1.35;;
66384;SDS011;53426;55.872;37.462;2023-06-24T06:04:36;6.78;;;2.25;;
66384;SDS011;53426;55.872;37.462;2023-06-24T06:07:02;2.92;;;1.92;;
66384;SDS011;53426;55.872;37.462;2023-06-24T06:09:28;2.40;;;2.20;;
66384;SDS011;53426;55.872;37.462;2023-06-24T06:11:55;1.90;;;1.73;;
66384;SDS011;53426;55.872;37.462;2023-06-24T06:14:22;2.17;;;1.70;;
66384;SDS011;53426;55.872;37.462;2023-06-24T06:16:51;3.17;;;2.60;;
66384;SDS011;53426;55.872;37.462;2023-06-24T06:19:17;7.13;;;1.70;;
66384;SDS011;53426;55.872;37.462;2023-06-24T06:21:43;7.20;;;1.80;;
66384;SDS011;53426;55.872;37.462;2023-06-24T06:24:08;1.77;;;1.60;;
66384;SDS011;53426;55.872;37.462;2023-06-24T06:26:34;3.10;;;2.75;;
66384;SDS011;53426;55.872;37.462;2023-06-24T06:29:00;4.55;;;1.80;;
66384;SDS011;53426;55.872;37.462;2023-06-24T06:31:26;1.80;;;1.70;;
66384;SDS011;53426;55.872;37.462;2023-06-24T06:33:56;6.15;;;2.00;;
66384;SDS011;53426;55.872;37.462;2023-06-24T06:36:34;2.25;;;1.65;;
66384;SDS011;53426;55.872;37.462;2023-06-24T06:39:02;2.33;;;1.60;;
66384;SDS011;53426;55.872;37.462;2023-06-24T06:41:31;1.80;;;1.70;;
66384;SDS011;53426;55.872;37.462;2023-06-24T06:43:57;1.92;;;1.83;;
66384;SDS011;53426;55.872;37.462;2023-06-24T06:46:23;5.85;;;2.05;;
66384;SDS011;53426;55.872;37.462;2023-06-24T06:48:49;2.00;;;1.90;;
66384;SDS011;53426;55.872;37.462;2023-06-24T06:51:15;2.20;;;1.70;;
66384;SDS011;53426;55.872;37.462;2023-06-24T06:53:44;2.00;;;1.80;;
66384;SDS011;53426;55.872;37.462;2023-06-24T06:59:03;2.45;;;2.22;;
66384;SDS011;53426;55.872;37.462;2023-06-24T07:05:33;2.08;;;1.88;;
66384;SDS011;53426;55.872;37.462;2023-06-24T07:14:32;8.18;;;1.80;;
66384;SDS011;53426;55.872;37.462;2023-06-24T07:20:01;4.20;;;1.73;;
66384;SDS011;53426;55.872;37.462;2023-06-24T07:22:31;1.73;;;1.58;;
66384;SDS011;53426;55.872;37.462;2023-06-24T07:28:37;2.10;;;2.00;;
66384;SDS011;53426;55.872;37.462;2023-06-24T07:31:09;3.22;;;1.88;;
66384;SDS011;53426;55.872;37.462;2023-06-24T07:33:38;2.30;;;1.75;;
66384;SDS011;53426;55.872;37.462;2023-06-24T07:36:04;1.70;;;1.60;;
66384;SDS011;53426;55.872;37.462;2023-06-24T07:38:33;3.08;;;1.77;;
66384;SDS011;53426;55.872;37.462;2023-06-24T07:45:37;2.63;;;1.70;;
66384;SDS011;53426;55.872;37.462;2023-06-24T07:54:11;2.22;;;1.73;;
66384;SDS011;53426;55.872;37.462;2023-06-24T08:02:54;2.33;;;1.77;;
66384;SDS011;53426;55.872;37.462;2023-06-24T08:05:28;1.95;;;1.85;;
66384;SDS011;53426;55.872;37.462;2023-06-24T08:10:46;4.38;;;2.30;;
66384;SDS011;53426;55.872;37.462;2023-06-24T08:13:44;3.05;;;2.08;;
66384;SDS011;53426;55.872;37.462;2023-06-24T08:16:11;2.33;;;2.13;;
66384;SDS011;53426;55.872;37.462;2023-06-24T08:18:38;3.13;;;1.90;;
66384;SDS011;53426;55.872;37.462;2023-06-24T08:25:05;2.25;;;2.15;;
66384;SDS011;53426;55.872;37.462;2023-06-24T08:30:39;2.17;;;2.00;;
66384;SDS011;53426;55.872;37.462;2023-06-24T08:33:15;2.40;;;2.30;;
66384;SDS011;53426;55.872;37.462;2023-06-24T08:41:50;3.38;;;2.22;;
66384;SDS011;53426;55.872;37.462;2023-06-24T08:44:16;4.97;;;2.40;;
66384;SDS011;53426;55.872;37.462;2023-06-24T08:46:53;2.67;;;2.30;;
66384;SDS011;53426;55.872;37.462;2023-06-24T08:54:34;3.10;;;2.90;;
66384;SDS011;53426;55.872;37.462;2023-06-24T08:57:02;2.78;;;2.40;;
66384;SDS011;53426;55.872;37.462;2023-06-24T08:59:33;4.15;;;2.60;;
66384;SDS011;53426;55.872;37.462;2023-06-24T09:02:00;2.78;;;2.58;;
66384;SDS011;53426;55.872;37.462;2023-06-24T09:04:29;2.83;;;2.63;;
66384;SDS011;53426;55.872;37.462;2023-06-24T09:06:56;3.30;;;3.10;;
66384;SDS011;53426;55.872;37.462;2023-06-24T09:09:23;4.07;;;3.40;;
66384;SDS011;53426;55.872;37.462;2023-06-24T09:12:11;3.97;;;3.60;;
66384;SDS011;53426;55.872;37.462;2023-06-24T09:14:42;4.55;;;4.15;;
66384;SDS011;53426;55.872;37.462;2023-06-24T09:20:17;8.43;;;3.58;;
66384;SDS011;53426;55.872;37.462;2023-06-24T09:22:47;3.80;;;3.50;;
66384;SDS011;53426;55.872;37.462;2023-06-24T09:25:16;4.03;;;3.72;;
66384;SDS011;53426;55.872;37.462;2023-06-24T09:27:48;4.10;;;3.80;;
66384;SDS011;53426;55.872;37.462;2023-06-24T09:30:18;4.20;;;3.90;;
66384;SDS011;53426;55.872;37.462;2023-06-24T09:32:46;5.40;;;3.97;;
66384;SDS011;53426;55.872;37.462;2023-06-24T09:35:15;5.18;;;3.80;;
66384;SDS011;53426;55.872;37.462;2023-06-24T09:37:48;4.90;;;3.97;;
66384;SDS011;53426;55.872;37.462;2023-06-24T09:40:21;4.65;;;4.30;;
66384;SDS011;53426;55.872;37.462;2023-06-24T09:42:49;4.50;;;3.92;;
66384;SDS011;53426;55.872;37.462;2023-06-24T09:45:23;4.38;;;4.07;;
66384;SDS011;53426;55.872;37.462;2023-06-24T09:47:51;4.55;;;3.90;;
66384;SDS011;53426;55.872;37.462;2023-06-24T09:50:18;5.05;;;4.47;;
66384;SDS011;53426;55.872;37.462;2023-06-24T09:52:50;4.20;;;3.80;;
66384;SDS011;53426;55.872;37.462;2023-06-24T09:55:18;5.53;;;4.72;;
66384;SDS011;53426;55.872;37.462;2023-06-24T09:57:46;4.70;;;4.35;;
66384;SDS011;53426;55.872;37.462;2023-06-24T10:00:17;4.60;;;4.30;;
66384;SDS011;53426;55.872;37.462;2023-06-24T10:02:47;5.00;;;4.53;;
66384;SDS011;53426;55.872;37.462;2023-06-24T10:05:14;5.60;;;4.38;;
66384;SDS011;53426;55.872;37.462;2023-06-24T10:07:40;5.15;;;4.50;;
66384;SDS011;53426;55.872;37.462;2023-06-24T10:10:08;6.07;;;4.55;;
66384;SDS011;53426;55.872;37.462;2023-06-24T10:12:35;4.53;;;4.22;;
66384;SDS011;53426;55.872;37.462;2023-06-24T10:15:02;5.07;;;4.47;;
66384;SDS011;53426;55.872;37.462;2023-06-24T10:17:34;5.38;;;4.07;;
66384;SDS011;53426;55.872;37.462;2023-06-24T10:20:04;4.53;;;4.22;;
66384;SDS011;53426;55.872;37.462;2023-06-24T10:22:33;4.30;;;4.00;;
66384;SDS011;53426;55.872;37.462;2023-06-24T10:24:59;5.57;;;3.88;;
66384;SDS011;53426;55.872;37.462;2023-06-24T10:27:38;4.65;;;3.90;;
66384;SDS011;53426;55.872;37.462;2023-06-24T10:30:05;4.38;;;3.95;;
66384;SDS011;53426;55.872;37.462;2023-06-24T10:32:40;4.30;;;4.00;;
66384;SDS011;53426;55.872;37.462;2023-06-24T10:35:23;4.72;;;4.40;;
66384;SDS011;53426;55.872;37.462;2023-06-24T10:37:54;5.40;;;4.70;;
66384;SDS011;53426;55.872;37.462;2023-06-24T10:40:37;5.20;;;4.70;;
66384;SDS011;53426;55.872;37.462;2023-06-24T10:43:23;4.75;;;4.20;;
66384;SDS011;53426;55.872;37.462;2023-06-24T10:45:55;5.88;;;5.20;;
66384;SDS011;53426;55.872;37.462;2023-06-24T10:48:23;7.13;;;4.40;;
66384;SDS011;53426;55.872;37.462;2023-06-24T10:50:49;5.35;;;4.40;;
66384;SDS011;53426;55.872;37.462;2023-06-24T10:53:16;5.72;;;4.30;;
66384;SDS011;53426;55.872;37.462;2023-06-24T10:55:45;4.90;;;4.35;;
66384;SDS011;53426;55.872;37.462;2023-06-24T10:58:13;4.43;;;3.55;;
66384;SDS011;53426;55.872;37.462;2023-06-24T11:00:41;4.40;;;4.10;;
66384;SDS011;53426;55.872;37.462;2023-06-24T11:03:16;4.20;;;3.85;;
66384;SDS011;53426;55.872;37.462;2023-06-24T11:05:44;4.20;;;3.90;;
66384;SDS011;53426;55.872;37.462;2023-06-24T11:08:11;4.80;;;4.13;;
66384;SDS011;53426;55.872;37.462;2023-06-24T11:10:47;6.07;;;3.90;;
66384;SDS011;53426;55.872;37.462;2023-06-24T11:13:15;4.68;;;3.35;;
66384;SDS011;53426;55.872;37.462;2023-06-24T11:15:42;5.60;;;3.33;;
66384;SDS011;53426;55.872;37.462;2023-06-24T11:18:11;3.75;;;3.28;;
66384;SDS011;53426;55.872;37.462;2023-06-24T11:20:37;3.60;;;3.30;;
66384;SDS011;53426;55.872;37.462;2023-06-24T11:23:08;3.65;;;3.35;;
66384;SDS011;53426;55.872;37.462;2023-06-24T11:25:40;4.38;;;3.75;;
66384;SDS011;53426;55.872;37.462;2023-06-24T11:28:12;4.15;;;3.75;;
66384;SDS011;53426;55.872;37.462;2023-06-24T11:30:45;5.13;;;3.65;;
66384;SDS011;53426;55.872;37.462;2023-06-24T11:33:14;4.10;;;3.25;;
66384;SDS011;53426;55.872;37.462;2023-06-24T11:35:52;3.30;;;3.00;;
66384;SDS011;53426;55.872;37.462;2023-06-24T11:38:19;3.92;;;3.60;;
66384;SDS011;53426;55.872;37.462;2023-06-24T11:40:47;3.78;;;3.47;;
66384;SDS011;53426;55.872;37.462;2023-06-24T11:43:14;6.03;;;3.20;;
66384;SDS011;53426;55.872;37.462;2023-06-24T11:45:40;7.20;;;3.15;;
66384;SDS011;53426;55.872;37.462;2023-06-24T11:48:06;3.42;;;2.88;;
66384;SDS011;53426;55.872;37.462;2023-06-24T11:50:33;3.38;;;2.97;;
66384;SDS011;53426;55.872;37.462;2023-06-24T11:53:01;4.75;;;3.55;;
66384;SDS011;53426;55.872;37.462;2023-06-24T11:55:27;3.47;;;3.22;;
66384;SDS011;53426;55.872;37.462;2023-06-24T11:58:01;5.88;;;3.35;;
66384;SDS011;53426;55.872;37.462;2023-06-24T12:00:33;5.53;;;3.28;;
66384;SDS011;53426;55.872;37.462;2023-06-24T12:03:04;3.10;;;2.90;;
66384;SDS011;53426;55.872;37.462;2023-06-24T12:05:32;4.28;;;3.20;;
66384;SDS011;53426;55.872;37.462;2023-06-24T12:08:00;3.50;;;3.30;;
66384;SDS011;53426;55.872;37.462;2023-06-24T12:10:34;6.93;;;3.40;;
66384;SDS011;53426;55.872;37.462;2023-06-24T12:13:01;3.55;;;3.25;;
66384;SDS011;53426;55.872;37.462;2023-06-24T12:15:29;4.63;;;3.25;;
66384;SDS011;53426;55.872;37.462;2023-06-24T12:17:55;5.07;;;3.15;;
66384;SDS011;53426;55.872;37.462;2023-06-24T12:20:21;5.85;;;3.25;;
66384;SDS011;53426;55.872;37.462;2023-06-24T12:22:48;3.40;;;3.20;;
66384;SDS011;53426;55.872;37.462;2023-06-24T12:25:15;4.30;;;3.75;;
66384;SDS011;53426;55.872;37.462;2023-06-24T12:27:44;5.63;;;3.72;;
66384;SDS011;53426;55.872;37.462;2023-06-24T12:30:21;6.78;;;3.55;;
66384;SDS011;53426;55.872;37.462;2023-06-24T12:32:51;4.40;;;4.00;;
66384;SDS011;53426;55.872;37.462;2023-06-24T12:35:19;3.65;;;3.38;;
66384;SDS011;53426;55.872;37.462;2023-06-24T12:37:47;4.18;;;3.83;;
66384;SDS011;53426;55.872;37.462;2023-06-24T12:40:14;5.57;;;4.25;;
66384;SDS011;53426;55.872;37.462;2023-06-24T12:42:41;4.05;;;3.75;;
66384;SDS011;53426;55.872;37.462;2023-06-24T12:45:07;3.95;;;3.65;;
66384;SDS011;53426;55.872;37.462;2023-06-24T12:47:34;4.00;;;3.55;;
66384;SDS011;53426;55.872;37.462;2023-06-24T12:50:00;4.00;;;3.53;;
66384;SDS011;53426;55.872;37.462;2023-06-24T12:52:25;3.67;;;3.40;;
66384;SDS011;53426;55.872;37.462;2023-06-24T12:54:51;3.55;;;3.25;;
66384;SDS011;53426;55.872;37.462;2023-06-24T12:57:17;4.65;;;3.72;;
66384;SDS011;53426;55.872;37.462;2023-06-24T12:59:43;3.53;;;3.33;;
66384;SDS011;53426;55.872;37.462;2023-06-24T13:02:10;3.70;;;3.50;;
66384;SDS011;53426;55.872;37.462;2023-06-24T13:04:36;6.43;;;3.53;;
66384;SDS011;53426;55.872;37.462;2023-06-24T13:07:02;3.97;;;3.67;;
66384;SDS011;53426;55.872;37.462;2023-06-24T13:09:28;3.97;;;3.65;;
66384;SDS011;53426;55.872;37.462;2023-06-24T13:11:54;3.95;;;3.20;;
66384;SDS011;53426;55.872;37.462;2023-06-24T13:14:20;4.03;;;3.72;;
66384;SDS011;53426;55.872;37.462;2023-06-24T13:16:46;4.35;;;3.95;;
66384;SDS011;53426;55.872;37.462;2023-06-24T13:19:12;4.10;;;3.80;;
66384;SDS011;53426;55.872;37.462;2023-06-24T13:21:38;4.95;;;4.50;;
66384;SDS011;53426;55.872;37.462;2023-06-24T13:24:04;3.72;;;3.47;;
66384;SDS011;53426;55.872;37.462;2023-06-24T13:26:30;4.82;;;3.40;;
66384;SDS011;53426;55.872;37.462;2023-06-24T13:28:56;4.80;;;3.83;;
66384;SDS011;53426;55.872;37.462;2023-06-24T13:31:22;3.88;;;3.67;;
66384;SDS011;53426;55.872;37.462;2023-06-24T13:33:48;3.70;;;3.40;;
66384;SDS011;53426;55.872;37.462;2023-06-24T13:36:32;3.88;;;3.58;;
66384;SDS011;53426;55.872;37.462;2023-06-24T13:39:04;6.07;;;3.63;;
66384;SDS011;53426;55.872;37.462;2023-06-24T13:41:32;4.13;;;3.72;;
66384;SDS011;53426;55.872;37.462;2023-06-24T13:44:01;3.85;;;3.53;;
66384;SDS011;53426;55.872;37.462;2023-06-24T13:46:29;4.97;;;3.63;;
66384;SDS011;53426;55.872;37.462;2023-06-24T13:48:56;4.93;;;4.00;;
66384;SDS011;53426;55.872;37.462;2023-06-24T13:51:23;4.20;;;3.78;;
66384;SDS011;53426;55.872;37.462;2023-06-24T13:53:50;6.03;;;4.07;;
66384;SDS011;53426;55.872;37.462;2023-06-24T13:56:17;4.22;;;3.10;;
66384;SDS011;53426;55.872;37.462;2023-06-24T13:58:44;5.78;;;3.60;;
66384;SDS011;53426;55.872;37.462;2023-06-24T14:01:10;4.00;;;3.25;;
66384;SDS011;53426;55.872;37.462;2023-06-24T14:03:36;5.03;;;3.80;;
66384;SDS011;53426;55.872;37.462;2023-06-24T14:06:02;4.07;;;3.70;;
66384;SDS011;53426;55.872;37.462;2023-06-24T14:08:29;3.75;;;3.38;;
66384;SDS011;53426;55.872;37.462;2023-06-24T14:10:57;3.85;;;3.53;;
66384;SDS011;53426;55.872;37.462;2023-06-24T14:13:24;3.55;;;3.25;;
66384;SDS011;53426;55.872;37.462;2023-06-24T14:15:52;4.57;;;3.80;;
66384;SDS011;53426;55.872;37.462;2023-06-24T14:18:18;8.70;;;3.70;;
66384;SDS011;53426;55.872;37.462;2023-06-24T14:20:44;3.58;;;3.28;;
66384;SDS011;53426;55.872;37.462;2023-06-24T14:23:10;3.55;;;3.08;;
66384;SDS011;53426;55.872;37.462;2023-06-24T14:25:36;3.47;;;3.17;;
66384;SDS011;53426;55.872;37.462;2023-06-24T14:28:03;4.45;;;3.05;;
66384;SDS011;53426;55.872;37.462;2023-06-24T14:30:29;3.47;;;3.13;;
66384;SDS011;53426;55.872;37.462;2023-06-24T14:32:55;9.55;;;3.65;;
66384;SDS011;53426;55.872;37.462;2023-06-24T14:35:21;6.03;;;3.58;;
66384;SDS011;53426;55.872;37.462;2023-06-24T14:37:47;3.55;;;3.25;;
66384;SDS011;53426;55.872;37.462;2023-06-24T14:40:13;4.30;;;3.20;;
66384;SDS011;53426;55.872;37.462;2023-06-24T14:42:39;3.60;;;2.90;;
66384;SDS011;53426;55.872;37.462;2023-06-24T14:45:05;14.38;;;2.92;;
66384;SDS011;53426;55.872;37.462;2023-06-24T14:47:33;4.25;;;3.60;;
66384;SDS011;53426;55.872;37.462;2023-06-24T14:49:59;3.13;;;2.83;;
66384;SDS011;53426;55.872;37.462;2023-06-24T14:52:27;4.78;;;3.40;;
66384;SDS011;53426;55.872;37.462;2023-06-24T14:54:52;13.57;;;3.75;;
66384;SDS011;53426;55.872;37.462;2023-06-24T14:57:18;4.90;;;3.10;;
66384;SDS011;53426;55.872;37.462;2023-06-24T14:59:45;3.15;;;2.95;;
66384;SDS011;53426;55.872;37.462;2023-06-24T15:02:11;2.90;;;2.67;;
66384;SDS011;53426;55.872;37.462;2023-06-24T15:04:37;8.45;;;3.40;;
66384;SDS011;53426;55.872;37.462;2023-06-24T15:07:05;4.03;;;3.35;;
66384;SDS011;53426;55.872;37.462;2023-06-24T15:09:31;3.92;;;3.20;;
66384;SDS011;53426;55.872;37.462;2023-06-24T15:11:58;3.45;;;3.15;;
66384;SDS011;53426;55.872;37.462;2023-06-24T15:14:28;3.08;;;2.80;;
66384;SDS011;53426;55.872;37.462;2023-06-24T15:16:54;5.20;;;3.58;;
66384;SDS011;53426;55.872;37.462;2023-06-24T15:19:23;6.20;;;3.30;;
66384;SDS011;53426;55.872;37.462;2023-06-24T15:21:49;3.83;;;3.15;;
66384;SDS011;53426;55.872;37.462;2023-06-24T15:24:15;6.93;;;2.60;;
66384;SDS011;53426;55.872;37.462;2023-06-24T15:26:41;4.85;;;3.15;;
66384;SDS011;53426;55.872;37.462;2023-06-24T15:29:08;4.05;;;2.90;;
66384;SDS011;53426;55.872;37.462;2023-06-24T15:31:34;6.68;;;3.17;;
66384;SDS011;53426;55.872;37.462;2023-06-24T15:34:00;3.30;;;3.00;;
66384;SDS011;53426;55.872;37.462;2023-06-24T15:36:26;3.20;;;2.90;;
66384;SDS011;53426;55.872;37.462;2023-06-24T15:38:54;3.45;;;3.25;;
66384;SDS011;53426;55.872;37.462;2023-06-24T15:41:21;3.20;;;2.95;;
66384;SDS011;53426;55.872;37.462;2023-06-24T15:43:47;7.30;;;3.13;;
66384;SDS011;53426;55.872;37.462;2023-06-24T15:46:13;3.42;;;3.20;;
66384;SDS011;53426;55.872;37.462;2023-06-24T15:48:39;5.43;;;3.75;;
66384;SDS011;53426;55.872;37.462;2023-06-24T15:51:06;3.55;;;3.10;;
66384;SDS011;53426;55.872;37.462;2023-06-24T15:53:32;5.25;;;3.50;;
66384;SDS011;53426;55.872;37.462;2023-06-24T15:55:58;6.28;;;3.25;;
66384;SDS011;53426;55.872;37.462;2023-06-24T15:58:24;3.70;;;2.80;;
66384;SDS011;53426;55.872;37.462;2023-06-24T16:00:50;5.22;;;3.30;;
66384;SDS011;53426;55.872;37.462;2023-06-24T16:03:16;4.65;;;4.30;;
66384;SDS011;53426;55.872;37.462;2023-06-24T16:05:42;3.60;;;3.30;;
66384;SDS011;53426;55.872;37.462;2023-06-24T16:08:09;6.32;;;3.55;;
66384;SDS011;53426;55.872;37.462;2023-06-24T16:10:34;3.60;;;3.30;;
66384;SDS011;53426;55.872;37.462;2023-06-24T16:13:00;4.15;;;2.97;;
66384;SDS011;53426;55.872;37.462;2023-06-24T16:15:26;4.07;;;3.28;;
66384;SDS011;53426;55.872;37.462;2023-06-24T16:17:55;3.72;;;3.42;;
66384;SDS011;53426;55.872;37.462;2023-06-24T16:20:34;4.32;;;3.35;;
66384;SDS011;53426;55.872;37.462;2023-06-24T16:23:02;6.10;;;3.58;;